createdAt,value
2022-09-28T00:01:20.774Z,69.49
2022-09-28T00:03:49.220Z,69.44
2022-09-28T00:06:18.749Z,69.58
2022-09-28T00:08:45.605Z,69.83
2022-09-28T00:11:15.100Z,69.64
2022-09-28T00:13:46.126Z,69.72
2022-09-28T00:16:15.932Z,69.43
2022-09-28T00:18:43.615Z,69.69
2022-09-28T00:21:18.587Z,69.64
2022-09-28T00:24:04.299Z,69.54
2022-09-28T00:26:32.925Z,69.63
2022-09-28T00:29:01.693Z,69.76
2022-09-28T00:31:32.638Z,69.70
2022-09-28T00:34:01.012Z,69.83
2022-09-28T00:36:29.513Z,69.79
2022-09-28T00:38:56.905Z,69.68
2022-09-28T00:41:25.548Z,69.79
2022-09-28T00:43:53.059Z,69.87
2022-09-28T00:46:28.901Z,69.73
2022-09-28T00:49:03.078Z,69.54
2022-09-28T00:51:30.555Z,69.66
2022-09-28T00:54:00.268Z,69.74
2022-09-28T00:56:29.518Z,69.66
2022-09-28T00:58:58.945Z,69.65
2022-09-28T01:01:27.577Z,69.61
2022-09-28T01:03:54.759Z,69.71
2022-09-28T01:06:23.542Z,69.66
2022-09-28T01:08:53.635Z,69.61
2022-09-28T01:11:20.585Z,69.74
2022-09-28T01:13:50.546Z,69.68
2022-09-28T01:16:41.619Z,69.65
2022-09-28T01:19:51.280Z,69.62
2022-09-28T01:22:54.129Z,69.71
2022-09-28T01:25:45.702Z,69.81
2022-09-28T01:28:19.308Z,69.65
2022-09-28T01:31:00.624Z,69.87
2022-09-28T01:33:35.561Z,69.82
2022-09-28T01:36:18.605Z,69.84
2022-09-28T01:38:55.832Z,69.91
2022-09-28T01:41:26.169Z,70.14
2022-09-28T01:43:56.419Z,70.08
2022-09-28T01:46:31.805Z,70.27
2022-09-28T01:49:02.219Z,70.20
2022-09-28T01:51:41.024Z,70.21
2022-09-28T01:54:21.008Z,70.02
2022-09-28T01:56:55.758Z,70.11
2022-09-28T01:59:27.142Z,70.02
2022-09-28T02:02:02.187Z,70.20
2022-09-28T02:05:02.593Z,70.11
2022-09-28T02:07:42.506Z,70.13
2022-09-28T02:10:22.428Z,70.25
2022-09-28T02:12:56.227Z,70.28
2022-09-28T02:15:33.379Z,70.24
2022-09-28T02:18:00.339Z,70.45
2022-09-28T02:20:31.973Z,70.13
2022-09-28T02:23:01.335Z,70.29
2022-09-28T02:25:31.418Z,70.25
2022-09-28T02:28:02.256Z,70.32
2022-09-28T02:30:35.735Z,70.32
2022-09-28T02:33:32.935Z,70.37
2022-09-28T02:36:00.718Z,70.43
2022-09-28T02:38:29.257Z,70.36
2022-09-28T02:41:36.510Z,70.20
2022-09-28T02:44:12.260Z,70.44
2022-09-28T02:46:54.508Z,70.26
2022-09-28T02:49:49.471Z,70.51
2022-09-28T02:52:45.572Z,70.43
2022-09-28T02:55:25.891Z,70.36
2022-09-28T02:58:34.415Z,70.30
2022-09-28T03:01:26.960Z,70.28
2022-09-28T03:04:13.192Z,70.31
2022-09-28T03:07:00.708Z,70.30
2022-09-28T03:09:37.052Z,70.27
2022-09-28T03:12:11.090Z,70.11
2022-09-28T03:14:37.634Z,70.25
2022-09-28T03:17:04.654Z,70.41
2022-09-28T03:19:33.784Z,70.39
2022-09-28T03:22:00.722Z,70.20
2022-09-28T03:24:27.405Z,70.25
2022-09-28T03:26:54.098Z,70.33
2022-09-28T03:29:22.211Z,70.23
2022-09-28T03:31:55.000Z,70.19
2022-09-28T03:34:21.824Z,70.22
2022-09-28T03:36:48.384Z,70.28
2022-09-28T03:39:15.022Z,70.24
2022-09-28T03:41:41.668Z,70.38
2022-09-28T03:44:08.317Z,70.33
2022-09-28T03:46:34.946Z,70.26
2022-09-28T03:49:05.865Z,70.13
2022-09-28T03:51:32.396Z,70.06
2022-09-28T03:53:58.893Z,69.96
2022-09-28T03:56:26.045Z,70.20
2022-09-28T03:58:52.631Z,70.17
2022-09-28T04:01:19.490Z,70.24
2022-09-28T04:03:47.722Z,70.08
2022-09-28T04:06:15.144Z,70.08
2022-09-28T04:08:43.329Z,70.07
2022-09-28T04:11:10.423Z,70.11
2022-09-28T04:13:37.267Z,70.24
2022-09-28T04:16:05.965Z,70.23
2022-09-28T04:18:35.150Z,70.16
2022-09-28T04:21:13.124Z,70.16
2022-09-28T04:23:44.580Z,70.23
2022-09-28T04:26:20.125Z,69.87
2022-09-28T04:29:07.099Z,70.15
2022-09-28T04:31:42.280Z,70.05
2022-09-28T04:34:09.383Z,70.20
2022-09-28T04:36:35.946Z,70.40
2022-09-28T04:39:02.581Z,70.42
2022-09-28T04:41:31.108Z,70.24
2022-09-28T04:43:57.705Z,70.27
2022-09-28T04:46:26.075Z,70.16
2022-09-28T04:49:12.657Z,70.25
2022-09-28T04:51:52.262Z,70.13
2022-09-28T04:54:18.929Z,70.34
2022-09-28T04:56:45.607Z,70.13
2022-09-28T04:59:13.453Z,70.16
2022-09-28T05:01:41.222Z,70.14
2022-09-28T05:04:24.979Z,70.11
2022-09-28T05:07:11.313Z,70.36
2022-09-28T05:09:38.740Z,70.11
2022-09-28T05:12:05.604Z,70.17
2022-09-28T05:14:32.161Z,70.13
2022-09-28T05:16:58.987Z,70.14
2022-09-28T05:19:25.523Z,70.20
2022-09-28T05:21:58.054Z,70.11
2022-09-28T05:24:24.896Z,70.21
2022-09-28T05:26:53.063Z,69.99
2022-09-28T05:29:19.853Z,70.18
2022-09-28T05:32:05.216Z,70.11
2022-09-28T05:51:46.654Z,69.98
2022-09-28T05:54:13.572Z,70.18
2022-09-28T05:56:44.095Z,70.23
2022-09-28T05:59:12.079Z,70.23
2022-09-28T06:01:38.829Z,70.22
2022-09-28T06:04:09.004Z,70.39
2022-09-28T06:06:36.738Z,70.42
2022-09-28T06:09:03.316Z,70.40
2022-09-28T06:11:32.689Z,70.35
2022-09-28T06:14:05.089Z,70.20
2022-09-28T06:16:32.349Z,70.36
2022-09-28T06:18:58.941Z,70.26
2022-09-28T06:21:58.418Z,70.34
2022-09-28T06:24:26.005Z,70.50
2022-09-28T06:26:52.838Z,70.16
2022-09-28T06:29:20.569Z,70.29
2022-09-28T06:31:47.292Z,70.24
2022-09-28T06:34:14.264Z,70.13
2022-09-28T06:36:40.966Z,70.32
2022-09-28T06:39:07.754Z,70.13
2022-09-28T06:41:35.816Z,70.08
2022-09-28T06:44:12.530Z,70.16
2022-09-28T06:47:17.732Z,70.28
2022-09-28T06:49:55.391Z,70.04
2022-09-28T06:52:51.493Z,70.06
2022-09-28T06:55:28.847Z,70.27
2022-09-28T06:57:58.557Z,70.21
2022-09-28T07:00:27.006Z,70.19
2022-09-28T07:02:54.305Z,70.25
2022-09-28T07:05:56.816Z,70.09
2022-09-28T07:08:41.758Z,70.29
2022-09-28T07:11:44.722Z,70.16
2022-09-28T07:14:45.579Z,70.18
2022-09-28T07:17:14.496Z,70.26
2022-09-28T07:41:34.001Z,70.55
2022-09-28T07:44:06.360Z,70.26
2022-09-28T07:46:36.040Z,70.37
2022-09-28T07:49:12.380Z,70.42
2022-09-28T07:51:54.436Z,70.59
2022-09-28T07:54:27.498Z,70.55
2022-09-28T07:57:13.293Z,70.48
2022-09-28T08:00:08.129Z,70.39
2022-09-28T08:02:48.299Z,70.09
2022-09-28T08:05:22.003Z,70.25
2022-09-28T08:07:48.634Z,70.47
2022-09-28T08:10:17.345Z,70.30
2022-09-28T08:13:03.309Z,70.35
2022-09-28T08:15:37.012Z,70.14
2022-09-28T08:18:13.923Z,70.46
2022-09-28T08:20:58.906Z,70.39
2022-09-28T08:23:26.066Z,70.37
2022-09-28T08:25:54.243Z,70.49
2022-09-28T08:28:23.757Z,70.28
2022-09-28T08:30:54.319Z,70.39
2022-09-28T08:33:41.210Z,70.43
2022-09-28T08:36:26.119Z,70.11
2022-09-28T08:39:01.701Z,70.34
2022-09-28T08:42:15.779Z,70.00
2022-09-28T08:45:23.457Z,70.21
2022-09-28T08:48:51.762Z,69.89
2022-09-28T08:51:59.310Z,70.09
2022-09-28T08:54:45.047Z,70.19
2022-09-28T08:57:27.515Z,69.78
2022-09-28T09:00:00.150Z,69.81
2022-09-28T09:02:33.573Z,69.69
2022-09-28T09:05:20.408Z,69.95
2022-09-28T09:08:19.202Z,69.84
2022-09-28T09:10:52.741Z,69.88
2022-09-28T09:13:50.958Z,69.70
2022-09-28T09:17:00.541Z,69.72
2022-09-28T09:20:15.604Z,69.52
2022-09-28T09:23:05.180Z,69.77
2022-09-28T09:25:47.383Z,69.47
2022-09-28T09:28:32.697Z,69.63
2022-09-28T09:31:17.690Z,69.42
2022-09-28T09:34:36.998Z,69.40
2022-09-28T09:38:00.387Z,69.26
2022-09-28T09:41:01.348Z,69.29
2022-09-28T09:44:27.442Z,69.37
2022-09-28T09:47:14.952Z,69.37
2022-09-28T09:49:51.324Z,69.43
2022-09-28T09:52:21.183Z,69.21
2022-09-28T09:54:51.473Z,69.29
2022-09-28T09:57:51.802Z,69.28
2022-09-28T10:00:51.853Z,69.23
2022-09-28T10:03:34.691Z,69.04
2022-09-28T10:06:16.738Z,69.07
2022-09-28T10:09:04.352Z,69.17
2022-09-28T10:11:41.154Z,68.90
2022-09-28T10:14:15.849Z,69.03
2022-09-28T10:16:48.445Z,69.09
2022-09-28T10:19:35.416Z,68.95
2022-09-28T10:22:23.887Z,69.04
2022-09-28T10:24:54.837Z,69.12
2022-09-28T10:27:29.720Z,68.95
2022-09-28T10:30:16.091Z,68.93
2022-09-28T10:32:44.782Z,69.05
2022-09-28T10:35:27.973Z,68.73
2022-09-28T10:38:15.057Z,68.83
2022-09-28T10:40:51.135Z,68.93
2022-09-28T10:43:33.464Z,68.96
2022-09-28T10:46:09.172Z,68.94
2022-09-28T10:48:45.573Z,68.86
2022-09-28T10:51:12.178Z,68.89
2022-09-28T10:53:40.130Z,68.88
2022-09-28T10:56:21.877Z,68.72
2022-09-28T10:58:53.530Z,68.73
2022-09-28T11:01:33.380Z,68.61
2022-09-28T11:04:08.022Z,68.69
2022-09-28T11:06:39.050Z,68.93
2022-09-28T11:09:30.591Z,68.50
2022-09-28T11:12:04.909Z,68.88
2022-09-28T11:14:43.549Z,68.90
2022-09-28T11:17:33.456Z,68.98
2022-09-28T11:20:26.060Z,68.70
2022-09-28T11:22:59.125Z,68.76
2022-09-28T11:25:31.334Z,68.94
2022-09-28T11:28:04.353Z,68.91
2022-09-28T11:31:01.470Z,68.82
2022-09-28T11:33:41.320Z,68.60
2022-09-28T11:36:29.542Z,68.74
2022-09-28T11:39:03.201Z,68.83
2022-09-28T11:42:31.468Z,68.81
2022-09-28T11:45:19.680Z,68.53
2022-09-28T11:47:51.680Z,68.66
2022-09-28T11:50:28.321Z,68.70
2022-09-28T11:53:10.836Z,68.60
2022-09-28T11:55:46.703Z,68.43
2022-09-28T11:58:23.363Z,68.54
2022-09-28T12:01:19.362Z,68.39
2022-09-28T12:04:20.624Z,68.35
2022-09-28T12:06:53.396Z,68.48
2022-09-28T12:09:32.553Z,68.54
2022-09-28T12:12:22.108Z,68.00
2022-09-28T12:14:57.163Z,68.19
2022-09-28T12:17:30.772Z,68.09
2022-09-28T12:20:05.390Z,67.97
2022-09-28T12:22:40.763Z,67.94
2022-09-28T12:25:14.842Z,67.95
2022-09-28T12:27:48.308Z,68.02
2022-09-28T12:30:21.439Z,67.98
2022-09-28T12:32:54.021Z,67.95
2022-09-28T12:35:53.487Z,67.80
2022-09-28T12:38:40.614Z,67.93
2022-09-28T12:41:13.138Z,67.82
2022-09-28T12:43:49.415Z,67.96
2022-09-28T12:46:42.358Z,67.82
2022-09-28T12:50:20.002Z,67.70
2022-09-28T12:52:29.058Z,67.78
2022-09-28T12:55:22.027Z,67.59
2022-09-28T12:58:16.526Z,67.56
2022-09-28T13:01:06.222Z,67.69
2022-09-28T13:03:45.028Z,67.58
2022-09-28T13:06:36.009Z,67.48
2022-09-28T13:09:25.578Z,67.22
2022-09-28T13:12:11.690Z,67.01
2022-09-28T13:14:38.126Z,67.02
2022-09-28T13:17:20.491Z,66.79
2022-09-28T13:20:21.306Z,66.75
2022-09-28T13:23:09.732Z,66.86
2022-09-28T13:25:40.967Z,66.68
2022-09-28T13:28:07.537Z,66.56
2022-09-28T13:30:38.971Z,66.44
2022-09-28T13:33:07.813Z,66.57
2022-09-28T13:35:34.924Z,66.33
2022-09-28T13:38:16.439Z,66.00
2022-09-28T13:41:04.735Z,66.09
2022-09-28T13:43:35.301Z,66.09
2022-09-28T13:46:20.533Z,66.12
2022-09-28T13:49:03.257Z,65.94
2022-09-28T13:51:48.516Z,65.82
2022-09-28T13:54:46.546Z,65.98
2022-09-28T13:57:21.293Z,65.90
2022-09-28T14:00:10.823Z,65.83
2022-09-28T14:02:46.532Z,65.81
2022-09-28T14:05:46.248Z,65.74
2022-09-28T14:08:26.105Z,65.88
2022-09-28T14:11:24.563Z,65.87
2022-09-28T14:14:11.770Z,65.91
2022-09-28T14:16:39.458Z,65.90
2022-09-28T14:19:24.254Z,65.89
2022-09-28T14:22:18.178Z,65.87
2022-09-28T14:24:55.488Z,65.73
2022-09-28T14:27:52.111Z,65.45
2022-09-28T14:30:34.924Z,65.58
2022-09-28T14:33:16.372Z,65.16
2022-09-28T14:35:56.415Z,65.58
2022-09-28T14:38:49.857Z,65.60
2022-09-28T14:41:17.633Z,65.41
2022-09-28T14:43:44.052Z,65.38
2022-09-28T14:46:23.176Z,65.17
2022-09-28T14:49:25.025Z,65.08
2022-09-28T14:51:51.437Z,65.03
2022-09-28T14:54:21.127Z,65.09
2022-09-28T14:56:53.476Z,65.10
2022-09-28T14:59:22.484Z,65.05
2022-09-28T15:02:01.402Z,65.04
2022-09-28T15:04:30.593Z,64.95
2022-09-28T15:07:00.234Z,65.21
2022-09-28T15:09:31.939Z,65.21
2022-09-28T15:12:18.559Z,65.31
2022-09-28T15:15:04.442Z,65.30
2022-09-28T15:17:40.053Z,65.41
2022-09-28T15:20:22.622Z,65.38
2022-09-28T15:22:51.752Z,65.44
2022-09-28T15:25:21.413Z,65.41
2022-09-28T15:27:54.147Z,65.35
2022-09-28T15:30:29.702Z,65.56
2022-09-28T15:33:17.952Z,65.46
2022-09-28T15:36:01.998Z,65.55
2022-09-28T15:38:31.040Z,65.62
2022-09-28T15:40:57.908Z,65.55
2022-09-28T15:43:32.789Z,65.53
2022-09-28T15:46:21.528Z,65.46
2022-09-28T15:48:59.511Z,65.67
2022-09-28T15:51:27.473Z,65.61
2022-09-28T15:54:04.165Z,65.62
2022-09-28T15:56:31.275Z,65.65
2022-09-28T15:59:15.659Z,65.65
2022-09-28T16:01:43.769Z,65.65
2022-09-28T16:04:39.770Z,65.73
2022-09-28T16:07:09.195Z,65.80
2022-09-28T16:10:05.352Z,65.88
2022-09-28T16:12:37.783Z,65.86
2022-09-28T16:15:20.430Z,65.75
2022-09-28T16:18:01.397Z,65.88
2022-09-28T16:20:31.989Z,65.77
2022-09-28T16:23:06.028Z,65.85
2022-09-28T16:25:38.041Z,65.96
2022-09-28T16:28:06.237Z,65.91
2022-09-28T16:30:34.541Z,65.69
2022-09-28T16:33:25.694Z,66.00
2022-09-28T16:35:53.116Z,65.96
2022-09-28T16:38:20.010Z,65.85
2022-09-28T16:40:54.831Z,65.74
2022-09-28T16:43:26.952Z,65.77
2022-09-28T16:45:57.556Z,65.73
2022-09-28T16:48:29.134Z,65.51
2022-09-28T16:50:56.713Z,65.43
2022-09-28T16:53:41.822Z,65.55
2022-09-28T16:56:08.771Z,65.46
2022-09-28T16:58:36.099Z,65.39
2022-09-28T17:01:02.814Z,65.43
2022-09-28T17:03:31.199Z,65.42
2022-09-28T17:05:57.766Z,65.49
2022-09-28T17:08:24.883Z,65.44
2022-09-28T17:11:15.886Z,65.24
2022-09-28T17:13:45.943Z,65.48
2022-09-28T17:16:14.078Z,65.48
2022-09-28T17:18:41.170Z,65.33
2022-09-28T17:21:12.225Z,65.41
2022-09-28T17:23:38.788Z,65.45
2022-09-28T17:26:06.700Z,65.54
2022-09-28T17:28:35.914Z,65.43
2022-09-28T17:31:04.276Z,65.61
2022-09-28T17:33:31.088Z,65.57
2022-09-28T17:36:00.567Z,65.64
2022-09-28T17:38:27.844Z,65.61
2022-09-28T17:40:54.454Z,65.59
2022-09-28T17:43:22.200Z,65.57
2022-09-28T17:45:49.508Z,65.66
2022-09-28T17:48:23.938Z,65.53
2022-09-28T17:50:51.170Z,65.81
2022-09-28T17:53:17.826Z,65.81
2022-09-28T17:55:44.277Z,65.63
2022-09-28T17:58:19.266Z,65.50
2022-09-28T18:00:47.848Z,65.65
2022-09-28T18:03:17.190Z,65.66
2022-09-28T18:05:44.590Z,65.99
2022-09-28T18:08:15.371Z,65.85
2022-09-28T18:10:41.945Z,65.83
2022-09-28T18:13:09.043Z,65.90
2022-09-28T18:15:36.115Z,65.84
2022-09-28T18:18:02.822Z,66.19
2022-09-28T18:20:29.710Z,66.12
2022-09-28T18:22:56.953Z,66.05
2022-09-28T18:25:23.546Z,66.01
2022-09-28T18:27:50.123Z,66.02
2022-09-28T18:30:16.885Z,66.18
2022-09-28T18:32:43.422Z,66.09
2022-09-28T18:35:11.175Z,66.22
2022-09-28T18:37:40.317Z,66.15
2022-09-28T18:40:12.887Z,66.15
2022-09-28T18:42:40.429Z,66.20
2022-09-28T18:45:11.149Z,66.28
2022-09-28T18:47:39.063Z,66.41
2022-09-28T18:50:06.432Z,66.37
2022-09-28T18:52:36.289Z,66.27
2022-09-28T18:55:03.219Z,66.44
2022-09-28T18:57:33.058Z,66.43
2022-09-28T19:00:07.119Z,66.44
2022-09-28T19:02:33.768Z,66.37
2022-09-28T19:05:00.491Z,66.53
2022-09-28T19:07:27.310Z,66.42
2022-09-28T19:09:53.773Z,66.52
2022-09-28T19:12:20.815Z,66.43
2022-09-28T19:14:47.533Z,66.59
2022-09-28T19:17:14.175Z,66.71
2022-09-28T19:19:42.702Z,66.65
2022-09-28T19:22:09.581Z,66.73
2022-09-28T19:24:36.103Z,66.73
2022-09-28T19:27:02.695Z,66.59
2022-09-28T19:29:29.466Z,66.87
2022-09-28T19:31:57.047Z,66.76
2022-09-28T19:34:26.877Z,66.88
2022-09-28T19:36:53.471Z,66.79
2022-09-28T19:39:20.067Z,66.97
2022-09-28T19:41:53.041Z,66.65
2022-09-28T19:44:27.491Z,66.76
2022-09-28T19:46:59.367Z,66.76
2022-09-28T19:49:27.492Z,66.79
2022-09-28T19:52:13.836Z,66.77
2022-09-28T19:54:56.459Z,66.72
2022-09-28T19:57:31.248Z,66.92
2022-09-28T20:00:02.101Z,66.90
2022-09-28T20:02:33.485Z,66.99
2022-09-28T20:05:00.297Z,66.81
2022-09-28T20:07:26.793Z,66.80
2022-09-28T20:09:53.421Z,66.92
2022-09-28T20:12:20.193Z,66.89
2022-09-28T20:14:46.927Z,66.95
2022-09-28T20:17:13.619Z,66.93
2022-09-28T20:19:40.408Z,66.96
2022-09-28T20:22:07.162Z,67.04
2022-09-28T20:24:33.814Z,66.97
2022-09-28T20:27:02.537Z,66.97
2022-09-28T20:29:32.087Z,67.11
2022-09-28T20:31:59.158Z,66.90
2022-09-28T20:34:25.882Z,66.79
2022-09-28T20:36:52.593Z,66.99
2022-09-28T20:39:19.355Z,66.97
2022-09-28T20:41:47.282Z,66.97
2022-09-28T20:44:17.121Z,66.81
2022-09-28T20:46:44.279Z,66.88
2022-09-28T20:49:11.066Z,66.87
2022-09-28T20:51:37.662Z,66.96
2022-09-28T20:54:04.559Z,67.07
2022-09-28T20:56:37.712Z,66.85
2022-09-28T20:59:09.860Z,66.79
2022-09-28T21:01:36.448Z,66.97
2022-09-28T21:04:28.508Z,66.79
2022-09-28T21:06:55.076Z,66.86
2022-09-28T21:09:21.627Z,67.00
2022-09-28T21:11:48.467Z,67.02
2022-09-28T21:14:15.087Z,66.98
2022-09-28T21:16:41.583Z,66.96
2022-09-28T21:19:08.117Z,66.98
2022-09-28T21:21:34.737Z,67.28
2022-09-28T21:24:02.004Z,66.94
2022-09-28T21:26:31.001Z,67.05
2022-09-28T21:29:06.229Z,66.69
2022-09-28T21:31:39.103Z,66.82
2022-09-28T21:34:06.225Z,66.95
2022-09-28T21:36:33.690Z,66.82
2022-09-28T21:39:00.200Z,66.84
2022-09-28T21:41:27.103Z,67.00
2022-09-28T21:43:53.770Z,66.82
2022-09-28T21:46:20.413Z,66.81
2022-09-28T21:48:51.406Z,66.91
2022-09-28T21:51:17.917Z,66.96
2022-09-28T21:53:44.531Z,66.80
2022-09-28T21:56:12.813Z,66.89
2022-09-28T21:58:40.010Z,66.95
2022-09-28T22:01:25.456Z,66.78
2022-09-28T22:03:55.161Z,66.88
2022-09-28T22:06:23.654Z,66.92
2022-09-28T22:08:50.696Z,67.00
2022-09-28T22:11:26.296Z,66.81
2022-09-28T22:13:55.192Z,66.97
2022-09-28T22:16:30.737Z,66.86
2022-09-28T22:18:57.752Z,66.87
2022-09-28T22:21:30.180Z,66.83
2022-09-28T22:24:01.270Z,66.85
2022-09-28T22:26:29.266Z,67.09
2022-09-28T22:28:58.103Z,66.61
2022-09-28T22:31:30.224Z,66.79
2022-09-28T22:33:57.766Z,66.86
2022-09-28T22:36:25.870Z,67.04
2022-09-28T22:38:54.533Z,67.16
2022-09-28T22:41:21.910Z,66.80
2022-09-28T22:43:50.261Z,66.87
2022-09-28T22:46:20.111Z,66.91
2022-09-28T22:48:54.676Z,66.82
2022-09-28T22:51:22.102Z,66.91
2022-09-28T22:53:48.832Z,66.90
2022-09-28T22:56:18.759Z,66.97
2022-09-28T22:58:46.466Z,66.88
2022-09-28T23:01:18.549Z,66.76
2022-09-28T23:03:45.398Z,66.88
2022-09-28T23:06:14.122Z,66.96
2022-09-28T23:08:40.619Z,66.85
2022-09-28T23:11:07.307Z,67.00
2022-09-28T23:13:35.088Z,67.00
2022-09-28T23:16:07.042Z,66.86
2022-09-28T23:18:36.397Z,66.74
2022-09-28T23:21:07.563Z,66.82
2022-09-28T23:23:34.418Z,66.88
2022-09-28T23:26:09.312Z,66.93
2022-09-28T23:28:35.809Z,66.66
2022-09-28T23:31:14.474Z,66.69
2022-09-28T23:33:41.494Z,66.87
2022-09-28T23:36:08.948Z,66.66
2022-09-28T23:38:35.482Z,66.87
2022-09-28T23:41:02.252Z,66.80
2022-09-28T23:43:28.926Z,66.73
2022-09-28T23:45:55.407Z,66.70
2022-09-28T23:48:21.849Z,66.94
2022-09-28T23:50:48.707Z,66.78
2022-09-28T23:53:15.238Z,66.76
2022-09-28T23:55:42.556Z,66.84
2022-09-28T23:58:10.086Z,66.76
